Time;durP1;ratioP1;P1;durP2;ratioP2;P2;SDS_P1;SDS_P2;PMS_P1;PMS_P2;Temp;Humidity;BMP_temperature;BMP_pressure;BME280_temperature;BME280_humidity;BME280_pressure;Samples;Min_cycle;Max_cycle;Signal;HPM_P1;HPM_P2
2023/05/14 00:02:07;;;;;;;;;;;;;;;25.16;31.64;101512.81;5084950;28;1136;-40
2023/05/14 00:04:32;;;;;;;;;;;;;;;25.04;32.08;101511.34;5096899;28;1015;-42
2023/05/14 00:06:58;;;;;;;;;;;;;;;25.03;31.84;101512.31;5096947;28;1054;-41
2023/05/14 00:09:23;;;;;;;;;;;;;;;25.19;32.02;101512.50;5097013;28;1105;-40
2023/05/14 00:11:49;;;;;;;;;;;;;;;24.89;32.50;101510.97;5088788;28;972;-41
2023/05/14 00:14:15;;;;;;;;;;;;;;;25.01;32.37;101511.59;5090672;28;1989;-41
2023/05/14 00:16:40;;;;;;;;;;;;;;;25.22;31.80;101511.38;5090035;28;1042;-41
2023/05/14 00:19:06;;;;;;;;;;;;;;;25.25;31.71;101516.44;5077019;28;1142;-40
2023/05/14 00:21:31;;;;;;;;;;;;;;;25.16;31.91;101520.88;5096688;28;1058;-40
2023/05/14 00:23:57;;;;;;;;;;;;;;;25.17;31.93;101519.88;5082434;28;1101;-41
2023/05/14 00:26:24;;;;;;;;;;;;;;;25.20;31.61;101524.13;5065930;28;1150;-41
2023/05/14 00:28:50;;;;;;;;;;;;;;;25.13;31.74;101529.25;5096712;28;1062;-41
2023/05/14 00:31:15;;;;;;;;;;;;;;;25.12;31.73;101529.41;5078307;28;1307;-41
2023/05/14 00:33:41;;;;;;;;;;;;;;;24.87;32.20;101535.31;5097223;28;1938;-41
2023/05/14 00:36:06;;;;;;;;;;;;;;;25.08;31.79;101531.56;5087755;28;887;-42
2023/05/14 00:38:32;;;;;;;;;;;;;;;25.04;32.00;101531.00;5089734;28;1051;-40
2023/05/14 00:40:58;;;;;;;;;;;;;;;25.28;31.42;101532.28;5078441;28;1051;-41
2023/05/14 00:43:24;;;;;;;;;;;;;;;25.16;31.67;101541.56;5096416;28;1042;-40
2023/05/14 00:45:51;;;;;;;;;;;;;;;25.12;31.66;101540.19;5078322;28;1087;-41
2023/05/14 00:48:17;;;;;;;;;;;;;;;25.25;31.38;101539.81;5086672;28;1118;-41
2023/05/14 00:50:42;;;;;;;;;;;;;;;25.03;31.86;101534.72;5084178;28;1136;-40
2023/05/14 00:53:09;;;;;;;;;;;;;;;25.17;31.81;101535.19;5096545;28;1078;-39
2023/05/14 00:55:38;;;;;;;;;;;;;;;25.06;31.92;101530.84;5096028;28;1906;-40
2023/05/14 00:58:06;;;;;;;;;;;;;;;25.16;31.53;101528.09;5077629;28;1114;-41
2023/05/14 01:00:31;;;;;;;;;;;;;;;25.22;31.77;101535.59;5085120;28;1036;-41
2023/05/14 01:03:00;;;;;;;;;;;;;;;24.97;32.26;101527.22;5090976;28;1110;-41
2023/05/14 01:05:26;;;;;;;;;;;;;;;25.00;32.01;101531.47;5077509;28;1063;-40
2023/05/14 01:07:51;;;;;;;;;;;;;;;24.87;32.26;101516.50;5077781;28;1198;-41
2023/05/14 01:10:20;;;;;;;;;;;;;;;24.85;32.41;101514.94;5096397;28;1123;-41
2023/05/14 01:12:47;;;;;;;;;;;;;;;25.00;32.01;101518.00;5065706;28;1141;-41
2023/05/14 01:15:40;;;;;;;;;;;;;;;24.94;32.02;101512.22;5066971;28;2000;-41
2023/05/14 01:18:09;;;;;;;;;;;;;;;24.79;32.43;101508.31;5091947;28;1298;-40
2023/05/14 01:20:36;;;;;;;;;;;;;;;24.90;32.36;101504.56;5078617;28;1223;-41
2023/05/14 01:23:01;;;;;;;;;;;;;;;24.84;32.21;101500.63;5095929;28;1233;-41
2023/05/14 01:25:27;;;;;;;;;;;;;;;24.63;32.62;101498.16;5060822;28;875;-41
2023/05/14 01:28:02;;;;;;;;;;;;;;;24.82;32.34;101505.31;5078052;28;1207;-40
2023/05/14 01:30:33;;;;;;;;;;;;;;;24.69;32.55;101506.50;5077634;28;1242;-41
2023/05/14 01:32:59;;;;;;;;;;;;;;;24.76;32.20;101505.88;5077970;28;1324;-41
2023/05/14 01:35:26;;;;;;;;;;;;;;;24.81;32.27;101504.47;5077994;28;1906;-41
2023/05/14 01:37:52;;;;;;;;;;;;;;;24.79;32.40;101508.31;5076483;28;958;-41
2023/05/14 01:40:19;;;;;;;;;;;;;;;24.72;32.41;101504.50;5057043;28;1105;-41
2023/05/14 01:42:44;;;;;;;;;;;;;;;24.83;32.18;101507.84;5078187;28;1227;-41
2023/05/14 01:45:10;;;;;;;;;;;;;;;24.67;32.44;101503.09;5096118;28;1134;-41
2023/05/14 01:47:36;;;;;;;;;;;;;;;24.34;31.21;101413.91;5077599;28;1388;-41
2023/05/14 01:50:01;;;;;;;;;;;;;;;25.11;31.16;101509.72;5059855;28;1095;-41
2023/05/14 01:52:27;;;;;;;;;;;;;;;25.47;31.12;101505.38;5095781;28;1174;-42
2023/05/14 01:54:53;;;;;;;;;;;;;;;25.99;30.40;101506.53;5077630;28;1910;-41
2023/05/14 01:57:18;;;;;;;;;;;;;;;25.82;30.43;101511.78;5095689;28;1067;-41
2023/05/14 01:59:44;;;;;;;;;;;;;;;24.60;32.47;101506.53;5076512;28;1113;-41
2023/05/14 02:02:09;;;;;;;;;;;;;;;25.75;30.71;101505.31;5057441;28;1181;-41
2023/05/14 02:04:35;;;;;;;;;;;;;;;26.00;30.26;101503.69;5089704;28;1031;-41
2023/05/14 02:07:00;;;;;;;;;;;;;;;25.54;30.77;101515.38;5076721;28;2078;-41
2023/05/14 02:09:26;;;;;;;;;;;;;;;25.33;31.11;101512.13;5095226;28;1142;-41
2023/05/14 02:11:52;;;;;;;;;;;;;;;25.82;30.59;101513.63;5094883;28;1146;-41
2023/05/14 02:14:17;;;;;;;;;;;;;;;26.10;30.16;101505.41;5056831;28;1969;-41
2023/05/14 02:16:43;;;;;;;;;;;;;;;25.97;29.96;101505.84;5077666;28;1114;-40
2023/05/14 02:19:08;;;;;;;;;;;;;;;25.36;31.37;101518.06;5095346;28;1074;-41
2023/05/14 02:21:34;;;;;;;;;;;;;;;25.56;30.98;101512.53;5096770;28;1015;-41
2023/05/14 02:24:00;;;;;;;;;;;;;;;25.98;30.51;101518.31;5098069;28;1123;-41
2023/05/14 02:26:25;;;;;;;;;;;;;;;26.16;29.84;101521.81;5086037;28;1027;-41
2023/05/14 02:28:51;;;;;;;;;;;;;;;25.82;30.58;101514.50;5081026;28;1113;-40
2023/05/14 02:31:18;;;;;;;;;;;;;;;25.03;31.83;101518.56;5064386;28;1051;-41
2023/05/14 02:33:43;;;;;;;;;;;;;;;25.72;30.77;101516.41;5080634;28;1981;-41
2023/05/14 02:36:09;;;;;;;;;;;;;;;26.16;29.74;101512.88;5096852;28;1166;-41
2023/05/14 02:38:35;;;;;;;;;;;;;;;26.11;29.66;101517.91;5060733;28;1075;-40
2023/05/14 02:41:00;;;;;;;;;;;;;;;25.33;31.15;101517.50;5098939;28;1031;-43
2023/05/14 02:43:26;;;;;;;;;;;;;;;25.34;30.93;101524.63;5098375;28;1087;-42
2023/05/14 02:45:51;;;;;;;;;;;;;;;25.96;30.11;101528.41;5099328;28;1143;-42
2023/05/14 02:48:17;;;;;;;;;;;;;;;26.25;30.11;101525.44;5096347;28;1234;-41
2023/05/14 02:50:43;;;;;;;;;;;;;;;25.92;30.20;101531.41;5085422;28;1070;-40
2023/05/14 02:53:09;;;;;;;;;;;;;;;25.27;31.38;101537.84;5098784;28;1170;-42
2023/05/14 02:55:34;;;;;;;;;;;;;;;25.83;30.41;101534.19;5080437;28;1910;-41
2023/05/14 02:58:00;;;;;;;;;;;;;;;26.14;30.12;101529.22;5098462;28;1127;-41
2023/05/14 03:00:26;;;;;;;;;;;;;;;26.21;29.46;101521.34;5077654;28;1162;-41
2023/05/14 03:02:51;;;;;;;;;;;;;;;25.40;31.19;101532.94;5078860;28;1136;-41
2023/05/14 03:05:17;;;;;;;;;;;;;;;25.50;30.91;101545.47;5080282;28;1281;-41
2023/05/14 03:07:42;;;;;;;;;;;;;;;26.08;30.23;101537.09;5098477;28;1027;-41
2023/05/14 03:10:08;;;;;;;;;;;;;;;26.32;28.86;101547.22;5098300;28;1105;-40
2023/05/14 03:12:34;;;;;;;;;;;;;;;25.52;31.04;101557.81;5076922;28;1128;-40
2023/05/14 03:14:59;;;;;;;;;;;;;;;25.35;31.21;101548.69;5079467;28;1905;-41
2023/05/14 03:17:25;;;;;;;;;;;;;;;26.02;30.16;101547.50;5079694;28;1066;-41
2023/05/14 03:19:51;;;;;;;;;;;;;;;26.26;29.51;101537.91;5098448;28;1147;-39
2023/05/14 03:22:16;;;;;;;;;;;;;;;25.48;30.95;101536.69;5079039;28;1091;-40
2023/05/14 03:24:42;;;;;;;;;;;;;;;25.18;32.02;101537.75;5040280;28;1284;-41
2023/05/14 03:27:07;;;;;;;;;;;;;;;25.17;31.87;101549.50;5077796;28;1059;-41
2023/05/14 03:29:33;;;;;;;;;;;;;;;26.01;30.52;101547.63;5098123;28;1131;-40
2023/05/14 03:31:58;;;;;;;;;;;;;;;26.19;29.85;101542.25;5097538;28;1055;-41
2023/05/14 03:34:24;;;;;;;;;;;;;;;25.36;31.40;101545.00;5097732;28;1909;-40
2023/05/14 03:36:49;;;;;;;;;;;;;;;25.41;31.56;101552.63;5075934;28;1129;-41
2023/05/14 03:39:18;;;;;;;;;;;;;;;25.46;31.68;101555.69;5066897;28;1373;-39
2023/05/14 03:41:46;;;;;;;;;;;;;;;25.68;31.41;101559.00;5097909;28;1125;-41
2023/05/14 03:44:12;;;;;;;;;;;;;;;25.81;31.32;101555.91;5079752;28;1106;-41
2023/05/14 03:46:38;;;;;;;;;;;;;;;25.86;30.30;101544.69;5097398;28;980;-42
2023/05/14 03:49:03;;;;;;;;;;;;;;;25.82;30.95;101541.44;5092653;28;1086;-41
2023/05/14 03:51:30;;;;;;;;;;;;;;;24.87;31.77;101540.72;5078238;28;1119;-40
2023/05/14 03:53:57;;;;;;;;;;;;;;;24.83;30.86;101542.84;5096916;28;1913;-42
2023/05/14 03:56:23;;;;;;;;;;;;;;;26.00;28.04;101549.50;5083864;28;1058;-42
2023/05/14 03:58:48;;;;;;;;;;;;;;;24.51;26.90;101552.16;5063899;28;1055;-42
2023/05/14 04:01:14;;;;;;;;;;;;;;;23.93;26.14;101544.00;5049536;28;1135;-42
2023/05/14 04:03:39;;;;;;;;;;;;;;;24.63;27.09;101555.50;5072512;28;1094;-41
2023/05/14 04:06:05;;;;;;;;;;;;;;;23.39;27.65;101556.94;5077315;28;1120;-42
2023/05/14 04:08:31;;;;;;;;;;;;;;;22.89;28.30;101564.81;5058845;28;1045;-42
2023/05/14 04:10:56;;;;;;;;;;;;;;;24.03;27.52;101560.13;5059415;28;1128;-42
2023/05/14 04:13:22;;;;;;;;;;;;;;;24.86;26.14;101570.47;5058799;28;1123;-41
2023/05/14 04:15:48;;;;;;;;;;;;;;;25.25;25.51;101566.75;5058694;28;1906;-42
2023/05/14 04:18:13;;;;;;;;;;;;;;;23.12;29.00;101570.81;5076844;28;1052;-42
2023/05/14 04:20:39;;;;;;;;;;;;;;;23.03;29.46;101560.06;5076743;28;1227;-42
2023/05/14 04:23:05;;;;;;;;;;;;;;;24.73;27.18;101563.56;5059328;28;1167;-43
2023/05/14 04:25:30;;;;;;;;;;;;;;;25.01;26.55;101566.31;5076835;28;1202;-42
2023/05/14 04:27:56;;;;;;;;;;;;;;;24.04;28.37;101558.28;5076787;28;1063;-42
2023/05/14 04:30:22;;;;;;;;;;;;;;;23.56;28.68;101560.78;5076555;28;1195;-43
2023/05/14 04:32:47;;;;;;;;;;;;;;;25.21;26.62;101557.28;5076821;28;1139;-42
2023/05/14 04:35:13;;;;;;;;;;;;;;;25.62;26.13;101560.44;5076780;28;1918;-42
2023/05/14 04:37:39;;;;;;;;;;;;;;;25.46;26.42;101558.41;5076159;28;1149;-42
2023/05/14 04:40:05;;;;;;;;;;;;;;;24.57;28.31;101566.88;5076658;28;1020;-42
2023/05/14 04:42:31;;;;;;;;;;;;;;;24.11;28.77;101564.78;5076474;28;1071;-42
2023/05/14 04:44:57;;;;;;;;;;;;;;;25.59;26.79;101566.09;5075783;28;1078;-42
2023/05/14 04:47:23;;;;;;;;;;;;;;;24.44;28.84;101564.50;5058768;28;1159;-42
2023/05/14 04:49:48;;;;;;;;;;;;;;;24.02;29.51;101565.66;5076072;28;1152;-41
2023/05/14 04:52:14;;;;;;;;;;;;;;;23.76;29.96;101566.19;5076285;28;1095;-42
2023/05/14 04:54:39;;;;;;;;;;;;;;;23.21;30.81;101571.84;5076384;28;1910;-41
2023/05/14 04:57:05;;;;;;;;;;;;;;;23.78;30.06;101570.44;5076773;28;1098;-42
2023/05/14 04:59:31;;;;;;;;;;;;;;;23.91;30.10;101563.94;5076104;28;1102;-41
2023/05/14 05:01:57;;;;;;;;;;;;;;;24.83;29.51;101569.75;5076080;28;1151;-41
2023/05/14 05:04:22;;;;;;;;;;;;;;;25.19;29.17;101555.59;5076103;28;984;-41
2023/05/14 05:06:48;;;;;;;;;;;;;;;25.75;28.57;101564.59;5058533;28;1140;-43
2023/05/14 05:09:15;;;;;;;;;;;;;;;24.03;30.48;101560.13;5058118;28;1056;-42
2023/05/14 05:11:40;;;;;;;;;;;;;;;24.83;30.04;101559.00;5076039;28;1108;-41
2023/05/14 05:14:06;;;;;;;;;;;;;;;25.66;28.41;101561.84;5075645;28;1972;-41
2023/05/14 05:16:31;;;;;;;;;;;;;;;24.95;30.09;101564.22;5075760;28;1153;-41
2023/05/14 05:18:57;;;;;;;;;;;;;;;25.36;29.51;101568.41;5075966;28;1035;-41
2023/05/14 05:21:23;;;;;;;;;;;;;;;26.69;27.33;101561.47;5076345;28;1067;-41
2023/05/14 05:23:48;;;;;;;;;;;;;;;27.26;26.95;101560.03;5076190;28;1123;-41
2023/05/14 05:26:14;;;;;;;;;;;;;;;25.40;29.39;101553.63;5075606;28;1222;-41
2023/05/14 05:28:40;;;;;;;;;;;;;;;25.01;30.53;101558.22;5076039;28;1227;-41
2023/05/14 05:31:05;;;;;;;;;;;;;;;26.65;27.90;101560.94;5076224;28;1238;-41
2023/05/14 05:33:31;;;;;;;;;;;;;;;26.36;27.97;101550.47;5076155;28;1965;-42
2023/05/14 05:35:56;;;;;;;;;;;;;;;25.35;29.94;101558.63;5075922;28;1162;-41
2023/05/14 05:38:22;;;;;;;;;;;;;;;25.88;29.39;101554.28;5075382;28;1134;-41
2023/05/14 05:40:48;;;;;;;;;;;;;;;27.01;27.75;101549.16;5075590;28;1063;-42
2023/05/14 05:43:14;;;;;;;;;;;;;;;25.88;29.12;101556.13;5075731;28;1238;-41
2023/05/14 05:45:40;;;;;;;;;;;;;;;25.46;29.96;101562.97;5058258;28;1071;-42
2023/05/14 05:48:05;;;;;;;;;;;;;;;26.66;28.07;101556.38;5074946;28;1256;-42
2023/05/14 05:50:31;;;;;;;;;;;;;;;26.34;28.33;101563.28;5075555;28;1198;-42
2023/05/14 05:52:59;;;;;;;;;;;;;;;25.53;30.11;101559.50;5088320;28;1139;-40
2023/05/14 05:55:25;;;;;;;;;;;;;;;26.08;29.16;101554.13;5076594;28;1918;-40
2023/05/14 05:57:50;;;;;;;;;;;;;;;27.06;27.64;101555.94;5078674;28;1043;-40
2023/05/14 06:00:16;;;;;;;;;;;;;;;26.72;28.30;101553.06;5080047;28;1075;-40
2023/05/14 06:02:42;;;;;;;;;;;;;;;25.78;29.38;101548.97;5079275;28;1098;-41
2023/05/14 06:05:08;;;;;;;;;;;;;;;26.10;29.14;101545.88;5079078;28;1108;-41
2023/05/14 06:07:33;;;;;;;;;;;;;;;27.05;26.78;101556.91;5079715;28;1110;-42
2023/05/14 06:09:59;;;;;;;;;;;;;;;24.79;29.45;101562.13;5079363;28;1102;-42
2023/05/14 06:12:25;;;;;;;;;;;;;;;24.63;30.08;101566.28;5079432;28;1171;-40
2023/05/14 06:14:50;;;;;;;;;;;;;;;26.56;27.58;101561.88;5078659;28;1922;-40
2023/05/14 06:17:16;;;;;;;;;;;;;;;26.44;27.64;101568.56;5078733;28;1528;-41
2023/05/14 06:19:41;;;;;;;;;;;;;;;26.31;28.15;101566.25;5079008;28;1127;-40
2023/05/14 06:22:07;;;;;;;;;;;;;;;26.83;27.63;101568.09;5078938;28;1455;-41
2023/05/14 06:24:32;;;;;;;;;;;;;;;27.25;26.63;101562.91;5078660;28;1159;-41
2023/05/14 06:26:58;;;;;;;;;;;;;;;26.74;27.36;101564.50;5078579;28;1194;-41
2023/05/14 06:29:24;;;;;;;;;;;;;;;26.96;27.31;101564.13;5060778;28;1084;-41
2023/05/14 06:31:49;;;;;;;;;;;;;;;27.37;26.48;101558.03;5079077;28;1075;-41
2023/05/14 06:34:15;;;;;;;;;;;;;;;25.68;28.10;101570.63;5078743;28;1910;-42
2023/05/14 06:36:41;;;;;;;;;;;;;;;25.03;29.02;101558.94;5078555;28;1064;-41
2023/05/14 06:39:06;;;;;;;;;;;;;;;25.28;28.91;101569.13;5060729;28;915;-42
2023/05/14 06:41:32;;;;;;;;;;;;;;;26.60;26.63;101567.81;5078543;28;1040;-42
2023/05/14 06:43:57;;;;;;;;;;;;;;;24.58;29.54;101573.94;5078585;28;1055;-42
2023/05/14 06:46:23;;;;;;;;;;;;;;;24.86;29.64;101573.97;5078265;28;1114;-41
2023/05/14 06:48:48;;;;;;;;;;;;;;;26.64;26.95;101574.59;5078588;28;1096;-42
2023/05/14 06:51:14;;;;;;;;;;;;;;;25.35;29.05;101575.63;5078305;28;1112;-41
2023/05/14 06:53:40;;;;;;;;;;;;;;;25.09;29.61;101560.16;5060617;28;1990;-42
2023/05/14 06:56:05;;;;;;;;;;;;;;;26.74;27.10;101575.31;5078187;28;1258;-42
2023/05/14 06:58:31;;;;;;;;;;;;;;;25.64;28.88;101577.31;5078655;28;1023;-42
2023/05/14 07:00:57;;;;;;;;;;;;;;;25.24;29.46;101579.34;5078388;28;1126;-42
2023/05/14 07:03:22;;;;;;;;;;;;;;;26.26;28.38;101575.66;5077959;28;1202;-42
2023/05/14 07:05:48;;;;;;;;;;;;;;;26.03;28.41;101573.47;5078674;28;1094;-43
2023/05/14 07:08:14;;;;;;;;;;;;;;;25.42;29.36;101581.25;5091248;28;1094;-42
2023/05/14 07:10:39;;;;;;;;;;;;;;;25.47;29.61;101578.09;5078047;28;1218;-42
2023/05/14 07:13:05;;;;;;;;;;;;;;;26.29;28.13;101578.03;5077950;28;1067;-42
2023/05/14 07:15:30;;;;;;;;;;;;;;;25.53;29.39;101580.19;5077766;28;1977;-42
2023/05/14 07:17:56;;;;;;;;;;;;;;;25.34;29.81;101583.88;5077605;28;1162;-43
2023/05/14 07:20:22;;;;;;;;;;;;;;;27.01;27.51;101573.44;5060192;28;1156;-42
2023/05/14 07:22:48;;;;;;;;;;;;;;;26.14;28.38;101585.00;5077871;28;1008;-42
2023/05/14 07:25:14;;;;;;;;;;;;;;;25.90;28.61;101594.56;5077757;28;1110;-42
2023/05/14 07:27:40;;;;;;;;;;;;;;;26.82;27.37;101589.88;5077082;28;1095;-44
2023/05/14 07:30:06;;;;;;;;;;;;;;;26.01;28.48;101593.47;5077606;28;1079;-42
2023/05/14 07:32:31;;;;;;;;;;;;;;;25.65;29.25;101600.56;5059898;28;1075;-42
2023/05/14 07:34:57;;;;;;;;;;;;;;;26.63;28.08;101606.13;5077738;28;1959;-42
2023/05/14 07:37:24;;;;;;;;;;;;;;;25.97;28.80;101595.66;5077613;28;1128;-42
2023/05/14 07:39:53;;;;;;;;;;;;;;;26.06;28.11;101587.63;5076879;28;863;-42
2023/05/14 07:42:18;;;;;;;;;;;;;;;26.49;28.24;101585.13;5077651;28;1179;-42
2023/05/14 07:44:44;;;;;;;;;;;;;;;26.17;28.62;101580.13;5077767;28;1104;-42
2023/05/14 07:47:10;;;;;;;;;;;;;;;25.89;29.22;101588.31;5077143;28;1086;-43
2023/05/14 07:49:35;;;;;;;;;;;;;;;26.22;28.58;101579.69;5077156;28;1083;-43
2023/05/14 07:52:01;;;;;;;;;;;;;;;26.37;28.02;101592.63;5076795;28;1233;-42
2023/05/14 07:54:27;;;;;;;;;;;;;;;25.85;29.11;101594.19;5077572;28;2039;-43
2023/05/14 07:56:53;;;;;;;;;;;;;;;25.61;29.19;101601.00;5077142;28;1122;-42
2023/05/14 07:59:18;;;;;;;;;;;;;;;26.68;27.65;101604.78;5059313;28;1024;-41
2023/05/14 08:01:44;;;;;;;;;;;;;;;26.03;28.90;101605.81;5077040;28;1088;-42
2023/05/14 08:04:10;;;;;;;;;;;;;;;25.83;29.30;101604.25;5076907;28;901;-42
2023/05/14 08:06:36;;;;;;;;;;;;;;;27.29;27.34;101598.53;5076465;28;1067;-44
2023/05/14 08:09:04;;;;;;;;;;;;;;;26.19;28.38;101604.28;5076287;28;1110;-42
2023/05/14 08:11:29;;;;;;;;;;;;;;;25.77;29.14;101611.13;5063619;28;1052;-43
2023/05/14 08:13:55;;;;;;;;;;;;;;;26.99;27.44;101601.59;5076838;28;1898;-42
2023/05/14 08:16:21;;;;;;;;;;;;;;;26.08;28.74;101609.88;5076693;28;1226;-42
2023/05/14 08:18:47;;;;;;;;;;;;;;;26.01;28.79;101610.50;5076287;28;1189;-42
2023/05/14 08:21:12;;;;;;;;;;;;;;;26.84;27.55;101606.75;5076780;28;1020;-42
2023/05/14 08:23:38;;;;;;;;;;;;;;;26.39;27.51;101598.72;5076346;28;1147;-42
2023/05/14 08:26:03;;;;;;;;;;;;;;;25.90;29.03;101599.97;5076501;28;1333;-42
2023/05/14 08:28:29;;;;;;;;;;;;;;;26.27;28.41;101596.25;5058817;28;895;-43
2023/05/14 08:30:54;;;;;;;;;;;;;;;26.71;27.32;101586.44;5075899;28;1138;-42
2023/05/14 08:33:20;;;;;;;;;;;;;;;26.27;28.45;101592.69;5076482;28;1048;-41
2023/05/14 08:35:46;;;;;;;;;;;;;;;26.15;28.68;101582.16;5076126;28;1914;-42
2023/05/14 08:38:11;;;;;;;;;;;;;;;27.05;27.38;101584.78;5076052;28;1175;-40
2023/05/14 08:40:37;;;;;;;;;;;;;;;26.37;28.07;101581.84;5075591;28;1111;-42
2023/05/14 08:43:02;;;;;;;;;;;;;;;26.32;28.09;101579.59;5076552;28;1155;-42
2023/05/14 08:45:29;;;;;;;;;;;;;;;27.36;26.75;101575.28;5076331;28;1215;-42
2023/05/14 08:47:54;;;;;;;;;;;;;;;26.31;28.21;101569.78;5076148;28;1064;-42
2023/05/14 08:50:21;;;;;;;;;;;;;;;26.18;28.89;101554.00;5076143;28;1123;-41
2023/05/14 08:52:46;;;;;;;;;;;;;;;27.24;27.40;101569.31;5075518;28;919;-40
2023/05/14 08:55:12;;;;;;;;;;;;;;;27.26;27.28;101562.72;5076008;28;1983;-42
2023/05/14 08:57:37;;;;;;;;;;;;;;;27.47;27.10;101569.56;5076550;28;1084;-41
2023/05/14 09:00:12;;;;;;;;;;;;;;;27.41;26.98;101572.91;5075892;28;1187;-42
2023/05/14 09:02:41;;;;;;;;;;;;;;;27.65;25.91;101573.97;5075825;28;1099;-40
2023/05/14 09:05:08;;;;;;;;;;;;;;;27.56;26.82;101572.28;5075869;28;1043;-42
2023/05/14 09:07:33;;;;;;;;;;;;;;;27.50;26.97;101574.63;5076234;28;1139;-41
2023/05/14 09:09:59;;;;;;;;;;;;;;;27.81;26.05;101569.63;5076481;28;1099;-41
2023/05/14 09:12:25;;;;;;;;;;;;;;;27.76;26.67;101572.81;5075985;28;1534;-43
2023/05/14 09:14:50;;;;;;;;;;;;;;;27.44;27.29;101574.44;5075475;28;1901;-42
2023/05/14 09:17:16;;;;;;;;;;;;;;;28.03;26.41;101575.41;5075955;28;863;-42
2023/05/14 09:19:42;;;;;;;;;;;;;;;27.16;23.31;101572.81;5076350;28;1039;-41
2023/05/14 09:22:09;;;;;;;;;;;;;;;25.73;23.03;101580.94;5075628;28;1074;-41
2023/05/14 09:24:34;;;;;;;;;;;;;;;27.12;23.78;101566.94;5075693;28;1322;-41
2023/05/14 09:27:00;;;;;;;;;;;;;;;26.57;21.29;101566.28;5058167;28;1052;-42
2023/05/14 09:29:29;;;;;;;;;;;;;;;25.60;21.93;101561.56;5075402;28;938;-41
2023/05/14 09:31:55;;;;;;;;;;;;;;;25.49;22.77;101563.47;5061335;28;1028;-41
2023/05/14 09:34:24;;;;;;;;;;;;;;;27.15;20.90;101557.63;5080039;28;1909;-41
2023/05/14 09:36:49;;;;;;;;;;;;;;;26.17;24.55;101557.72;5079649;28;1106;-41
2023/05/14 09:39:16;;;;;;;;;;;;;;;26.01;25.72;101569.22;5079667;28;1056;-39
2023/05/14 09:41:41;;;;;;;;;;;;;;;26.99;24.06;101577.31;5067344;28;1102;-42
2023/05/14 09:44:07;;;;;;;;;;;;;;;26.22;25.80;101584.22;5079295;28;1152;-42
2023/05/14 09:46:33;;;;;;;;;;;;;;;26.11;26.16;101586.16;5080020;28;1198;-41
2023/05/14 09:48:58;;;;;;;;;;;;;;;26.81;25.26;101588.19;5079521;28;1092;-42
2023/05/14 09:51:24;;;;;;;;;;;;;;;26.31;25.67;101585.13;5079645;28;1075;-41
2023/05/14 09:53:51;;;;;;;;;;;;;;;26.15;26.04;101586.69;5078998;28;1905;-41
2023/05/14 09:56:17;;;;;;;;;;;;;;;26.83;25.23;101575.34;5079509;28;1098;-41
2023/05/14 09:58:43;;;;;;;;;;;;;;;26.67;25.08;101576.13;5079674;28;1095;-40
2023/05/14 10:01:08;;;;;;;;;;;;;;;25.93;26.97;101580.78;5061577;28;1052;-42
2023/05/14 10:03:34;;;;;;;;;;;;;;;26.24;26.52;101579.53;5061326;28;1024;-41
2023/05/14 10:06:04;;;;;;;;;;;;;;;26.40;26.09;101586.91;5061739;28;1060;-42
2023/05/14 10:08:32;;;;;;;;;;;;;;;25.86;27.40;101585.94;5078838;28;1067;-41
2023/05/14 10:10:57;;;;;;;;;;;;;;;25.98;27.51;101578.47;5079575;28;1075;-41
2023/05/14 10:13:23;;;;;;;;;;;;;;;27.07;25.96;101573.81;5078675;28;1078;-42
2023/05/14 10:16:13;;;;;;;;;;;;;;;26.10;27.55;101567.44;5060995;28;2002;-39
2023/05/14 10:18:39;;;;;;;;;;;;;;;25.88;28.05;101578.56;5069089;28;1103;-42
2023/05/14 10:21:05;;;;;;;;;;;;;;;26.83;26.44;101573.50;5061073;28;1128;-40
2023/05/14 10:23:32;;;;;;;;;;;;;;;25.89;28.17;101577.53;5061035;28;1168;-41
2023/05/14 10:25:57;;;;;;;;;;;;;;;25.83;28.45;101575.47;5078723;28;1101;-41
2023/05/14 10:28:23;;;;;;;;;;;;;;;27.26;26.10;101564.56;5060717;28;1075;-38
2023/05/14 10:30:49;;;;;;;;;;;;;;;26.00;28.19;101563.00;5078559;28;1087;-41
2023/05/14 10:33:17;;;;;;;;;;;;;;;26.09;28.33;101558.50;5078753;28;1044;-41
2023/05/14 10:35:56;;;;;;;;;;;;;;;27.21;26.61;101562.38;5079157;28;1897;-41
2023/05/14 10:38:27;;;;;;;;;;;;;;;26.07;28.26;101563.22;5078856;28;1016;-41
2023/05/14 10:40:56;;;;;;;;;;;;;;;25.86;28.62;101564.38;5078862;28;1087;-41
2023/05/14 10:43:24;;;;;;;;;;;;;;;27.06;26.71;101564.84;5078170;28;1155;-41
2023/05/14 10:45:50;;;;;;;;;;;;;;;26.26;28.38;101574.81;5060585;28;1068;-42
2023/05/14 10:48:15;;;;;;;;;;;;;;;25.85;28.99;101570.78;5078834;28;1016;-41
2023/05/14 10:50:41;;;;;;;;;;;;;;;26.74;27.67;101569.91;5060352;28;1114;-41
2023/05/14 10:53:09;;;;;;;;;;;;;;;26.19;28.19;101573.75;5060163;28;1160;-41
2023/05/14 10:55:35;;;;;;;;;;;;;;;25.83;29.05;101574.59;5078237;28;1910;-41
2023/05/14 10:58:02;;;;;;;;;;;;;;;26.51;27.91;101570.47;5078551;28;1152;-42
2023/05/14 11:00:28;;;;;;;;;;;;;;;26.23;28.39;101570.56;5060074;28;1227;-41
2023/05/14 11:02:54;;;;;;;;;;;;;;;26.03;29.05;101572.59;5078468;28;1090;-40
2023/05/14 11:05:19;;;;;;;;;;;;;;;25.72;29.58;101571.16;5060067;28;1163;-41
2023/05/14 11:07:46;;;;;;;;;;;;;;;26.03;29.48;101578.84;5077859;28;1139;-42
2023/05/14 11:10:11;;;;;;;;;;;;;;;25.76;29.91;101575.22;5078071;28;1122;-41
2023/05/14 11:12:37;;;;;;;;;;;;;;;25.90;29.71;101575.69;5078191;28;1071;-42
2023/05/14 11:15:04;;;;;;;;;;;;;;;25.72;29.54;101568.47;5077381;28;1910;-41
2023/05/14 11:17:30;;;;;;;;;;;;;;;25.87;29.75;101560.69;5077859;28;1186;-42
2023/05/14 11:19:56;;;;;;;;;;;;;;;25.34;29.59;101549.69;5077907;28;1035;-42
2023/05/14 11:22:21;;;;;;;;;;;;;;;25.14;29.98;101554.34;5077499;28;1164;-40
2023/05/14 11:24:47;;;;;;;;;;;;;;;25.17;29.83;101562.94;5078004;28;1082;-41
2023/05/14 11:27:13;;;;;;;;;;;;;;;25.44;30.14;101547.78;5077917;28;1119;-41
2023/05/14 11:29:38;;;;;;;;;;;;;;;25.43;30.31;101537.16;5077364;28;852;-42
2023/05/14 11:32:04;;;;;;;;;;;;;;;25.51;30.06;101542.63;5059864;28;1531;-40
2023/05/14 11:34:30;;;;;;;;;;;;;;;25.42;30.12;101538.16;5085544;28;1914;-41
2023/05/14 11:36:55;;;;;;;;;;;;;;;25.41;30.33;101528.38;5082830;28;976;-41
2023/05/14 11:39:21;;;;;;;;;;;;;;;25.41;30.01;101525.69;5077732;28;1161;-41
2023/05/14 11:41:46;;;;;;;;;;;;;;;25.44;30.28;101515.44;5077441;28;1140;-42
2023/05/14 11:44:12;;;;;;;;;;;;;;;25.37;30.35;101509.00;5077385;28;1207;-41
2023/05/14 11:46:37;;;;;;;;;;;;;;;25.46;30.17;101506.38;5077246;28;1118;-40
2023/05/14 11:49:03;;;;;;;;;;;;;;;25.49;30.22;101498.81;5077661;28;1087;-41
2023/05/14 11:51:29;;;;;;;;;;;;;;;25.43;30.35;101494.06;5077157;28;1087;-41
2023/05/14 11:53:54;;;;;;;;;;;;;;;25.47;30.20;101494.59;5076407;28;1978;-41
2023/05/14 11:56:20;;;;;;;;;;;;;;;25.43;30.34;101481.44;5077185;28;1056;-40
2023/05/14 11:58:46;;;;;;;;;;;;;;;25.41;30.29;101480.75;5077128;28;1128;-39
2023/05/14 12:01:12;;;;;;;;;;;;;;;25.47;30.25;101467.66;5077107;28;1190;-40
2023/05/14 12:03:38;;;;;;;;;;;;;;;25.41;30.49;101455.66;5046039;28;1183;-41
2023/05/14 12:06:05;;;;;;;;;;;;;;;25.44;30.22;101453.50;5076426;28;935;-40
2023/05/14 12:08:31;;;;;;;;;;;;;;;25.37;30.18;101459.66;5063919;28;1180;-40
2023/05/14 12:10:57;;;;;;;;;;;;;;;25.35;30.30;101451.75;5077377;28;1171;-41
2023/05/14 12:13:28;;;;;;;;;;;;;;;25.41;30.40;101445.72;5076862;28;1217;-41
2023/05/14 12:15:55;;;;;;;;;;;;;;;25.40;30.34;101448.59;5076914;28;1910;-37
2023/05/14 12:18:21;;;;;;;;;;;;;;;25.55;29.99;101446.19;5076750;28;911;-40
2023/05/14 12:20:47;;;;;;;;;;;;;;;25.53;30.38;101445.50;5077355;28;1063;-40
2023/05/14 12:23:12;;;;;;;;;;;;;;;25.53;29.29;101445.50;5076550;28;1410;-40
2023/05/14 12:25:38;;;;;;;;;;;;;;;25.42;28.62;101450.09;5076702;28;1102;-40
2023/05/14 12:28:14;;;;;;;;;;;;;;;25.36;28.46;101444.53;5076425;28;1039;-40
2023/05/14 12:30:40;;;;;;;;;;;;;;;25.38;27.37;101443.34;5076463;28;948;-40
2023/05/14 12:33:05;;;;;;;;;;;;;;;25.42;27.33;101444.72;5077053;28;972;-40
2023/05/14 12:35:31;;;;;;;;;;;;;;;25.51;26.48;101442.09;5076385;28;1917;-39
2023/05/14 12:37:57;;;;;;;;;;;;;;;25.48;26.24;101442.41;5076534;28;1031;-40
2023/05/14 12:40:22;;;;;;;;;;;;;;;25.22;26.20;101449.44;5076401;28;1206;-39
2023/05/14 12:42:48;;;;;;;;;;;;;;;25.61;25.95;101450.13;5075999;28;1025;-40